sensor_id;sensor_type;location;lat;lon;timestamp;temperature;humidity
12957;DHT22;6543;48.836;10.092;2022-10-31T00:02:02;10.20;99.90
12957;DHT22;6543;48.836;10.092;2022-10-31T00:04:31;10.10;99.90
12957;DHT22;6543;48.836;10.092;2022-10-31T00:06:57;10.20;99.90
12957;DHT22;6543;48.836;10.092;2022-10-31T00:09:24;10.10;99.90
12957;DHT22;6543;48.836;10.092;2022-10-31T00:11:51;10.10;99.90
12957;DHT22;6543;48.836;10.092;2022-10-31T00:14:18;10.10;99.90
12957;DHT22;6543;48.836;10.092;2022-10-31T00:16:45;10.00;99.90
12957;DHT22;6543;48.836;10.092;2022-10-31T00:19:11;10.00;99.90
12957;DHT22;6543;48.836;10.092;2022-10-31T00:21:40;10.00;99.90
12957;DHT22;6543;48.836;10.092;2022-10-31T00:24:07;10.00;99.90
12957;DHT22;6543;48.836;10.092;2022-10-31T00:26:34;10.00;99.90
12957;DHT22;6543;48.836;10.092;2022-10-31T00:29:01;10.00;99.90
12957;DHT22;6543;48.836;10.092;2022-10-31T00:31:28;9.90;99.90
12957;DHT22;6543;48.836;10.092;2022-10-31T00:33:55;9.80;99.90
12957;DHT22;6543;48.836;10.092;2022-10-31T00:36:22;9.60;99.90
12957;DHT22;6543;48.836;10.092;2022-10-31T00:38:50;9.50;99.90
12957;DHT22;6543;48.836;10.092;2022-10-31T00:41:17;9.50;99.90
12957;DHT22;6543;48.836;10.092;2022-10-31T00:43:44;9.40;99.90
12957;DHT22;6543;48.836;10.092;2022-10-31T00:46:12;9.40;99.90
12957;DHT22;6543;48.836;10.092;2022-10-31T00:48:39;9.40;99.90
12957;DHT22;6543;48.836;10.092;2022-10-31T00:51:06;9.30;99.90
12957;DHT22;6543;48.836;10.092;2022-10-31T00:53:33;9.30;99.90
12957;DHT22;6543;48.836;10.092;2022-10-31T00:56:02;9.20;99.90
12957;DHT22;6543;48.836;10.092;2022-10-31T00:58:29;9.10;99.90
12957;DHT22;6543;48.836;10.092;2022-10-31T01:00:56;9.20;99.90
12957;DHT22;6543;48.836;10.092;2022-10-31T01:03:24;9.10;99.90
12957;DHT22;6543;48.836;10.092;2022-10-31T01:05:58;9.10;99.90
12957;DHT22;6543;48.836;10.092;2022-10-31T01:08:26;9.00;99.90
12957;DHT22;6543;48.836;10.092;2022-10-31T01:11:07;9.00;99.90
12957;DHT22;6543;48.836;10.092;2022-10-31T01:13:34;9.00;99.90
12957;DHT22;6543;48.836;10.092;2022-10-31T01:16:03;9.00;99.90
12957;DHT22;6543;48.836;10.092;2022-10-31T01:18:31;8.90;99.90
12957;DHT22;6543;48.836;10.092;2022-10-31T01:21:03;8.90;99.90
12957;DHT22;6543;48.836;10.092;2022-10-31T01:23:31;8.90;99.90
12957;DHT22;6543;48.836;10.092;2022-10-31T01:26:04;8.70;99.90
12957;DHT22;6543;48.836;10.092;2022-10-31T01:28:32;8.70;99.90
12957;DHT22;6543;48.836;10.092;2022-10-31T01:31:04;8.60;99.90
12957;DHT22;6543;48.836;10.092;2022-10-31T01:33:31;8.60;99.90
12957;DHT22;6543;48.836;10.092;2022-10-31T01:35:59;8.60;99.90
12957;DHT22;6543;48.836;10.092;2022-10-31T01:38:26;8.60;99.90
12957;DHT22;6543;48.836;10.092;2022-10-31T01:40:52;8.60;99.90
12957;DHT22;6543;48.836;10.092;2022-10-31T01:43:21;8.60;99.90
12957;DHT22;6543;48.836;10.092;2022-10-31T01:45:51;8.60;99.90
12957;DHT22;6543;48.836;10.092;2022-10-31T01:48:22;8.60;99.90
12957;DHT22;6543;48.836;10.092;2022-10-31T01:50:53;8.60;99.90
12957;DHT22;6543;48.836;10.092;2022-10-31T01:53:21;8.50;99.90
12957;DHT22;6543;48.836;10.092;2022-10-31T01:55:49;8.50;99.90
12957;DHT22;6543;48.836;10.092;2022-10-31T01:58:22;8.50;99.90
12957;DHT22;6543;48.836;10.092;2022-10-31T02:00:52;8.60;99.90
12957;DHT22;6543;48.836;10.092;2022-10-31T02:03:20;8.50;99.90
12957;DHT22;6543;48.836;10.092;2022-10-31T02:05:49;8.40;99.90
12957;DHT22;6543;48.836;10.092;2022-10-31T02:08:19;8.50;99.90
12957;DHT22;6543;48.836;10.092;2022-10-31T02:10:48;8.50;99.90
12957;DHT22;6543;48.836;10.092;2022-10-31T02:13:15;8.50;99.90
12957;DHT22;6543;48.836;10.092;2022-10-31T02:15:45;8.50;99.90
12957;DHT22;6543;48.836;10.092;2022-10-31T02:18:13;8.50;99.90
12957;DHT22;6543;48.836;10.092;2022-10-31T02:20:48;8.40;99.90
12957;DHT22;6543;48.836;10.092;2022-10-31T02:23:46;8.40;99.90
12957;DHT22;6543;48.836;10.092;2022-10-31T02:32:27;8.30;99.90
12957;DHT22;6543;48.836;10.092;2022-10-31T02:35:03;8.40;99.90
12957;DHT22;6543;48.836;10.092;2022-10-31T02:37:37;8.40;99.90
12957;DHT22;6543;48.836;10.092;2022-10-31T02:40:10;8.40;99.90
12957;DHT22;6543;48.836;10.092;2022-10-31T02:42:46;8.40;99.90
12957;DHT22;6543;48.836;10.092;2022-10-31T02:45:21;8.40;99.90
12957;DHT22;6543;48.836;10.092;2022-10-31T02:47:55;8.40;99.90
12957;DHT22;6543;48.836;10.092;2022-10-31T02:50:27;8.40;99.90
12957;DHT22;6543;48.836;10.092;2022-10-31T02:52:55;8.40;99.90
12957;DHT22;6543;48.836;10.092;2022-10-31T02:55:47;8.60;99.90
12957;DHT22;6543;48.836;10.092;2022-10-31T02:58:19;8.50;99.90
12957;DHT22;6543;48.836;10.092;2022-10-31T03:00:58;8.40;99.90
12957;DHT22;6543;48.836;10.092;2022-10-31T03:03:33;8.30;99.90
12957;DHT22;6543;48.836;10.092;2022-10-31T03:06:06;8.20;99.90
12957;DHT22;6543;48.836;10.092;2022-10-31T03:08:40;8.00;99.90
12957;DHT22;6543;48.836;10.092;2022-10-31T03:11:09;8.00;99.90
12957;DHT22;6543;48.836;10.092;2022-10-31T03:13:41;7.90;99.90
12957;DHT22;6543;48.836;10.092;2022-10-31T03:16:12;7.90;99.90
12957;DHT22;6543;48.836;10.092;2022-10-31T03:18:45;7.90;99.90
12957;DHT22;6543;48.836;10.092;2022-10-31T03:21:20;7.90;99.90
12957;DHT22;6543;48.836;10.092;2022-10-31T03:23:49;7.90;99.90
12957;DHT22;6543;48.836;10.092;2022-10-31T03:26:17;7.90;99.90
12957;DHT22;6543;48.836;10.092;2022-10-31T03:28:50;7.90;99.90
12957;DHT22;6543;48.836;10.092;2022-10-31T03:31:23;7.90;99.90
12957;DHT22;6543;48.836;10.092;2022-10-31T03:33:54;7.90;99.90
12957;DHT22;6543;48.836;10.092;2022-10-31T03:36:23;7.90;99.90
12957;DHT22;6543;48.836;10.092;2022-10-31T03:38:51;7.90;99.90
12957;DHT22;6543;48.836;10.092;2022-10-31T03:41:21;7.90;99.90
12957;DHT22;6543;48.836;10.092;2022-10-31T03:43:57;7.90;99.90
12957;DHT22;6543;48.836;10.092;2022-10-31T03:46:24;8.00;99.90
12957;DHT22;6543;48.836;10.092;2022-10-31T03:48:53;8.10;99.90
12957;DHT22;6543;48.836;10.092;2022-10-31T03:51:23;8.00;99.90
12957;DHT22;6543;48.836;10.092;2022-10-31T03:53:56;8.00;99.90
12957;DHT22;6543;48.836;10.092;2022-10-31T03:56:30;7.90;99.90
12957;DHT22;6543;48.836;10.092;2022-10-31T03:59:00;8.00;99.90
12957;DHT22;6543;48.836;10.092;2022-10-31T04:01:30;8.00;99.90
12957;DHT22;6543;48.836;10.092;2022-10-31T04:04:00;8.00;99.90
12957;DHT22;6543;48.836;10.092;2022-10-31T04:06:28;8.00;99.90
12957;DHT22;6543;48.836;10.092;2022-10-31T04:09:00;8.10;99.90
12957;DHT22;6543;48.836;10.092;2022-10-31T04:11:30;8.00;99.90
12957;DHT22;6543;48.836;10.092;2022-10-31T04:14:00;8.00;99.90
12957;DHT22;6543;48.836;10.092;2022-10-31T04:16:28;8.00;99.90
12957;DHT22;6543;48.836;10.092;2022-10-31T04:18:55;8.00;99.90
12957;DHT22;6543;48.836;10.092;2022-10-31T04:21:28;7.10;99.90
12957;DHT22;6543;48.836;10.092;2022-10-31T04:23:56;7.90;99.90
12957;DHT22;6543;48.836;10.092;2022-10-31T04:26:23;7.90;99.90
12957;DHT22;6543;48.836;10.092;2022-10-31T04:28:50;7.80;99.90
12957;DHT22;6543;48.836;10.092;2022-10-31T04:31:17;7.80;99.90
12957;DHT22;6543;48.836;10.092;2022-10-31T04:33:44;7.70;99.90
12957;DHT22;6543;48.836;10.092;2022-10-31T04:36:11;7.80;99.90
12957;DHT22;6543;48.836;10.092;2022-10-31T04:38:39;7.80;99.90
12957;DHT22;6543;48.836;10.092;2022-10-31T04:41:06;7.80;99.90
12957;DHT22;6543;48.836;10.092;2022-10-31T04:43:33;7.80;99.90
12957;DHT22;6543;48.836;10.092;2022-10-31T04:45:59;7.90;99.90
12957;DHT22;6543;48.836;10.092;2022-10-31T04:48:26;8.00;99.90
12957;DHT22;6543;48.836;10.092;2022-10-31T04:50:58;8.00;99.90
12957;DHT22;6543;48.836;10.092;2022-10-31T04:53:26;8.00;99.90
12957;DHT22;6543;48.836;10.092;2022-10-31T04:55:54;7.80;99.90
12957;DHT22;6543;48.836;10.092;2022-10-31T04:58:21;7.80;99.90
12957;DHT22;6543;48.836;10.092;2022-10-31T05:00:51;7.80;99.90
12957;DHT22;6543;48.836;10.092;2022-10-31T05:03:18;7.70;99.90
12957;DHT22;6543;48.836;10.092;2022-10-31T05:05:45;7.70;99.90
12957;DHT22;6543;48.836;10.092;2022-10-31T05:08:12;7.70;99.90
12957;DHT22;6543;48.836;10.092;2022-10-31T05:10:39;7.60;99.90
12957;DHT22;6543;48.836;10.092;2022-10-31T05:13:07;7.60;99.90
12957;DHT22;6543;48.836;10.092;2022-10-31T05:15:34;7.50;99.90
12957;DHT22;6543;48.836;10.092;2022-10-31T05:18:01;7.50;99.90
12957;DHT22;6543;48.836;10.092;2022-10-31T05:20:30;7.50;99.90
12957;DHT22;6543;48.836;10.092;2022-10-31T05:22:58;7.60;99.90
12957;DHT22;6543;48.836;10.092;2022-10-31T05:25:26;7.70;99.90
12957;DHT22;6543;48.836;10.092;2022-10-31T05:27:54;7.70;99.90
12957;DHT22;6543;48.836;10.092;2022-10-31T05:30:24;7.70;99.90
12957;DHT22;6543;48.836;10.092;2022-10-31T05:32:51;7.70;99.90
12957;DHT22;6543;48.836;10.092;2022-10-31T05:35:20;7.60;99.90
12957;DHT22;6543;48.836;10.092;2022-10-31T05:37:48;7.50;99.90
12957;DHT22;6543;48.836;10.092;2022-10-31T05:40:17;7.50;99.90
12957;DHT22;6543;48.836;10.092;2022-10-31T05:42:44;7.50;99.90
12957;DHT22;6543;48.836;10.092;2022-10-31T05:45:13;7.40;99.90
12957;DHT22;6543;48.836;10.092;2022-10-31T05:47:41;7.40;99.90
12957;DHT22;6543;48.836;10.092;2022-10-31T05:50:09;7.40;99.90
12957;DHT22;6543;48.836;10.092;2022-10-31T05:52:36;7.40;99.90
12957;DHT22;6543;48.836;10.092;2022-10-31T05:55:04;7.40;99.90
12957;DHT22;6543;48.836;10.092;2022-10-31T05:57:32;7.30;99.90
12957;DHT22;6543;48.836;10.092;2022-10-31T06:00:00;7.20;99.90
12957;DHT22;6543;48.836;10.092;2022-10-31T06:02:26;7.30;99.90
12957;DHT22;6543;48.836;10.092;2022-10-31T06:04:59;7.30;99.90
12957;DHT22;6543;48.836;10.092;2022-10-31T06:07:25;7.30;99.90
12957;DHT22;6543;48.836;10.092;2022-10-31T06:09:52;7.30;99.90
12957;DHT22;6543;48.836;10.092;2022-10-31T06:12:19;7.40;99.90
12957;DHT22;6543;48.836;10.092;2022-10-31T06:14:46;7.60;99.90
12957;DHT22;6543;48.836;10.092;2022-10-31T06:17:13;7.70;99.90
12957;DHT22;6543;48.836;10.092;2022-10-31T06:19:39;7.80;99.90
12957;DHT22;6543;48.836;10.092;2022-10-31T06:22:08;7.90;99.90
12957;DHT22;6543;48.836;10.092;2022-10-31T06:24:37;7.90;99.90
12957;DHT22;6543;48.836;10.092;2022-10-31T06:27:04;7.90;99.90
12957;DHT22;6543;48.836;10.092;2022-10-31T06:29:31;7.90;99.90
12957;DHT22;6543;48.836;10.092;2022-10-31T06:31:58;7.90;99.90
12957;DHT22;6543;48.836;10.092;2022-10-31T06:34:25;7.90;99.90
12957;DHT22;6543;48.836;10.092;2022-10-31T06:36:52;7.90;99.90
12957;DHT22;6543;48.836;10.092;2022-10-31T06:39:20;7.80;99.90
12957;DHT22;6543;48.836;10.092;2022-10-31T06:41:47;7.80;99.90
12957;DHT22;6543;48.836;10.092;2022-10-31T06:44:14;7.80;99.90
12957;DHT22;6543;48.836;10.092;2022-10-31T06:46:41;7.80;99.90
12957;DHT22;6543;48.836;10.092;2022-10-31T06:49:08;7.80;99.90
12957;DHT22;6543;48.836;10.092;2022-10-31T06:51:35;7.70;99.90
12957;DHT22;6543;48.836;10.092;2022-10-31T06:54:01;7.80;99.90
12957;DHT22;6543;48.836;10.092;2022-10-31T06:56:30;7.90;99.90
12957;DHT22;6543;48.836;10.092;2022-10-31T06:58:57;7.90;99.90
12957;DHT22;6543;48.836;10.092;2022-10-31T07:01:23;8.00;99.90
12957;DHT22;6543;48.836;10.092;2022-10-31T07:03:50;8.10;99.90
12957;DHT22;6543;48.836;10.092;2022-10-31T07:06:17;8.20;99.90
12957;DHT22;6543;48.836;10.092;2022-10-31T07:08:44;8.30;99.90
12957;DHT22;6543;48.836;10.092;2022-10-31T07:11:11;8.40;99.90
12957;DHT22;6543;48.836;10.092;2022-10-31T07:13:39;8.40;99.90
12957;DHT22;6543;48.836;10.092;2022-10-31T07:16:06;8.50;99.90
12957;DHT22;6543;48.836;10.092;2022-10-31T07:18:36;8.60;99.90
12957;DHT22;6543;48.836;10.092;2022-10-31T07:21:03;8.80;99.90
12957;DHT22;6543;48.836;10.092;2022-10-31T07:23:30;8.90;99.90
12957;DHT22;6543;48.836;10.092;2022-10-31T07:25:57;9.10;99.90
12957;DHT22;6543;48.836;10.092;2022-10-31T07:28:25;9.30;99.90
12957;DHT22;6543;48.836;10.092;2022-10-31T07:30:55;9.40;99.90
12957;DHT22;6543;48.836;10.092;2022-10-31T07:33:23;9.60;99.90
12957;DHT22;6543;48.836;10.092;2022-10-31T07:35:51;9.70;99.90
12957;DHT22;6543;48.836;10.092;2022-10-31T07:38:18;9.90;99.90
12957;DHT22;6543;48.836;10.092;2022-10-31T07:40:49;10.00;99.90
12957;DHT22;6543;48.836;10.092;2022-10-31T07:43:17;10.20;99.90
12957;DHT22;6543;48.836;10.092;2022-10-31T07:45:44;10.40;99.90
12957;DHT22;6543;48.836;10.092;2022-10-31T07:48:16;10.50;99.90
12957;DHT22;6543;48.836;10.092;2022-10-31T07:50:43;10.70;99.90
12957;DHT22;6543;48.836;10.092;2022-10-31T07:53:11;10.80;99.90
12957;DHT22;6543;48.836;10.092;2022-10-31T07:55:38;10.90;99.90
12957;DHT22;6543;48.836;10.092;2022-10-31T07:58:07;11.10;99.90
12957;DHT22;6543;48.836;10.092;2022-10-31T08:00:35;11.30;99.90
12957;DHT22;6543;48.836;10.092;2022-10-31T08:03:04;11.50;99.90
12957;DHT22;6543;48.836;10.092;2022-10-31T08:05:33;11.70;99.90
12957;DHT22;6543;48.836;10.092;2022-10-31T08:08:00;11.80;99.90
12957;DHT22;6543;48.836;10.092;2022-10-31T08:10:27;11.90;99.90
12957;DHT22;6543;48.836;10.092;2022-10-31T08:12:56;12.00;99.90
12957;DHT22;6543;48.836;10.092;2022-10-31T08:15:23;12.20;99.90
12957;DHT22;6543;48.836;10.092;2022-10-31T08:17:50;12.30;99.90
12957;DHT22;6543;48.836;10.092;2022-10-31T08:20:17;12.40;99.90
12957;DHT22;6543;48.836;10.092;2022-10-31T08:22:54;12.50;99.90
12957;DHT22;6543;48.836;10.092;2022-10-31T08:25:21;12.70;99.90
12957;DHT22;6543;48.836;10.092;2022-10-31T08:27:49;12.80;99.90
12957;DHT22;6543;48.836;10.092;2022-10-31T08:30:17;13.10;99.90
12957;DHT22;6543;48.836;10.092;2022-10-31T08:32:44;13.20;99.90
12957;DHT22;6543;48.836;10.092;2022-10-31T08:35:11;13.20;99.90
12957;DHT22;6543;48.836;10.092;2022-10-31T08:37:38;13.40;99.90
12957;DHT22;6543;48.836;10.092;2022-10-31T08:40:07;13.50;99.90
12957;DHT22;6543;48.836;10.092;2022-10-31T08:42:34;13.70;99.90
12957;DHT22;6543;48.836;10.092;2022-10-31T08:45:02;13.80;99.90
12957;DHT22;6543;48.836;10.092;2022-10-31T08:47:29;14.00;99.90
12957;DHT22;6543;48.836;10.092;2022-10-31T08:49:56;14.20;99.90
12957;DHT22;6543;48.836;10.092;2022-10-31T08:52:23;14.40;99.90
12957;DHT22;6543;48.836;10.092;2022-10-31T08:54:50;14.50;99.90
12957;DHT22;6543;48.836;10.092;2022-10-31T08:57:19;14.70;99.90
12957;DHT22;6543;48.836;10.092;2022-10-31T08:59:45;14.90;99.90
12957;DHT22;6543;48.836;10.092;2022-10-31T09:02:12;15.10;99.90
12957;DHT22;6543;48.836;10.092;2022-10-31T09:04:39;15.20;99.90
12957;DHT22;6543;48.836;10.092;2022-10-31T09:07:06;15.30;99.90
12957;DHT22;6543;48.836;10.092;2022-10-31T09:09:33;15.50;99.90
12957;DHT22;6543;48.836;10.092;2022-10-31T09:11:59;15.50;99.90
12957;DHT22;6543;48.836;10.092;2022-10-31T09:14:28;15.70;99.90
12957;DHT22;6543;48.836;10.092;2022-10-31T09:16:55;15.90;99.90
12957;DHT22;6543;48.836;10.092;2022-10-31T09:19:21;16.10;99.90
12957;DHT22;6543;48.836;10.092;2022-10-31T09:21:52;16.40;99.90
12957;DHT22;6543;48.836;10.092;2022-10-31T09:24:19;16.60;99.90
12957;DHT22;6543;48.836;10.092;2022-10-31T09:26:46;16.80;99.90
12957;DHT22;6543;48.836;10.092;2022-10-31T09:29:13;17.00;99.90
12957;DHT22;6543;48.836;10.092;2022-10-31T09:31:41;17.20;99.90
12957;DHT22;6543;48.836;10.092;2022-10-31T09:34:08;17.20;99.90
12957;DHT22;6543;48.836;10.092;2022-10-31T09:36:35;17.20;99.90
12957;DHT22;6543;48.836;10.092;2022-10-31T09:39:02;17.20;99.90
12957;DHT22;6543;48.836;10.092;2022-10-31T09:41:37;17.30;99.90
12957;DHT22;6543;48.836;10.092;2022-10-31T09:44:11;17.40;99.90
12957;DHT22;6543;48.836;10.092;2022-10-31T09:46:49;17.40;99.90
12957;DHT22;6543;48.836;10.092;2022-10-31T09:49:34;17.60;99.90
12957;DHT22;6543;48.836;10.092;2022-10-31T09:52:08;17.50;99.90
12957;DHT22;6543;48.836;10.092;2022-10-31T09:54:43;17.70;99.90
12957;DHT22;6543;48.836;10.092;2022-10-31T09:57:14;17.80;99.90
12957;DHT22;6543;48.836;10.092;2022-10-31T09:59:43;17.70;99.90
12957;DHT22;6543;48.836;10.092;2022-10-31T10:02:17;17.80;99.90
12957;DHT22;6543;48.836;10.092;2022-10-31T10:04:50;18.00;99.90
12957;DHT22;6543;48.836;10.092;2022-10-31T10:07:24;18.20;99.90
12957;DHT22;6543;48.836;10.092;2022-10-31T10:09:53;18.30;99.90
12957;DHT22;6543;48.836;10.092;2022-10-31T10:12:28;18.30;99.90
12957;DHT22;6543;48.836;10.092;2022-10-31T10:15:16;18.60;99.90
12957;DHT22;6543;48.836;10.092;2022-10-31T10:17:51;18.60;99.90
12957;DHT22;6543;48.836;10.092;2022-10-31T10:20:31;18.80;99.90
12957;DHT22;6543;48.836;10.092;2022-10-31T10:23:12;18.80;99.90
12957;DHT22;6543;48.836;10.092;2022-10-31T10:25:45;18.90;99.90
12957;DHT22;6543;48.836;10.092;2022-10-31T10:28:19;19.10;99.90
12957;DHT22;6543;48.836;10.092;2022-10-31T10:30:50;19.20;99.90
12957;DHT22;6543;48.836;10.092;2022-10-31T10:33:24;19.30;99.90
12957;DHT22;6543;48.836;10.092;2022-10-31T10:35:57;19.30;99.90
12957;DHT22;6543;48.836;10.092;2022-10-31T10:38:28;19.40;99.90
12957;DHT22;6543;48.836;10.092;2022-10-31T10:41:00;19.50;99.90
12957;DHT22;6543;48.836;10.092;2022-10-31T10:43:32;19.50;99.90
12957;DHT22;6543;48.836;10.092;2022-10-31T10:46:12;19.60;99.90
12957;DHT22;6543;48.836;10.092;2022-10-31T10:49:03;19.60;99.90
12957;DHT22;6543;48.836;10.092;2022-10-31T10:51:37;19.70;99.90
12957;DHT22;6543;48.836;10.092;2022-10-31T10:54:33;19.80;99.90
12957;DHT22;6543;48.836;10.092;2022-10-31T10:57:18;19.80;99.90
12957;DHT22;6543;48.836;10.092;2022-10-31T10:59:47;20.00;99.90
12957;DHT22;6543;48.836;10.092;2022-10-31T11:02:17;19.90;99.90
12957;DHT22;6543;48.836;10.092;2022-10-31T11:04:49;20.10;99.90
12957;DHT22;6543;48.836;10.092;2022-10-31T11:07:16;20.10;99.90
12957;DHT22;6543;48.836;10.092;2022-10-31T11:09:43;19.90;99.90
12957;DHT22;6543;48.836;10.092;2022-10-31T11:12:18;20.10;99.90
12957;DHT22;6543;48.836;10.092;2022-10-31T11:14:48;20.10;99.90
12957;DHT22;6543;48.836;10.092;2022-10-31T11:17:22;20.00;99.90
12957;DHT22;6543;48.836;10.092;2022-10-31T11:20:03;20.10;99.90
12957;DHT22;6543;48.836;10.092;2022-10-31T11:22:30;20.30;99.90
12957;DHT22;6543;48.836;10.092;2022-10-31T11:24:57;20.30;99.90
12957;DHT22;6543;48.836;10.092;2022-10-31T11:27:25;20.20;99.90
12957;DHT22;6543;48.836;10.092;2022-10-31T11:29:53;20.20;99.90
12957;DHT22;6543;48.836;10.092;2022-10-31T11:32:30;20.00;99.90
12957;DHT22;6543;48.836;10.092;2022-10-31T11:34:59;20.10;99.90
12957;DHT22;6543;48.836;10.092;2022-10-31T11:37:30;20.20;99.90
12957;DHT22;6543;48.836;10.092;2022-10-31T11:40:03;20.30;99.90
12957;DHT22;6543;48.836;10.092;2022-10-31T11:42:36;20.30;99.90
12957;DHT22;6543;48.836;10.092;2022-10-31T11:45:14;20.30;99.90
12957;DHT22;6543;48.836;10.092;2022-10-31T11:47:43;20.30;99.90
12957;DHT22;6543;48.836;10.092;2022-10-31T11:50:18;20.30;99.90
12957;DHT22;6543;48.836;10.092;2022-10-31T11:52:47;20.40;99.90
12957;DHT22;6543;48.836;10.092;2022-10-31T11:55:16;20.40;99.90
12957;DHT22;6543;48.836;10.092;2022-10-31T11:57:45;20.30;99.90
12957;DHT22;6543;48.836;10.092;2022-10-31T12:00:21;20.30;99.90
12957;DHT22;6543;48.836;10.092;2022-10-31T12:02:48;20.30;99.90
12957;DHT22;6543;48.836;10.092;2022-10-31T12:05:18;20.40;99.90
12957;DHT22;6543;48.836;10.092;2022-10-31T12:07:48;20.60;99.90
12957;DHT22;6543;48.836;10.092;2022-10-31T12:10:15;20.90;99.90
12957;DHT22;6543;48.836;10.092;2022-10-31T12:12:55;20.80;99.90
12957;DHT22;6543;48.836;10.092;2022-10-31T12:15:30;20.90;99.90
12957;DHT22;6543;48.836;10.092;2022-10-31T12:18:17;21.00;99.90
12957;DHT22;6543;48.836;10.092;2022-10-31T12:20:55;20.90;99.90
12957;DHT22;6543;48.836;10.092;2022-10-31T12:23:33;20.80;99.90
12957;DHT22;6543;48.836;10.092;2022-10-31T12:26:11;21.00;99.90
12957;DHT22;6543;48.836;10.092;2022-10-31T12:28:57;21.10;99.90
12957;DHT22;6543;48.836;10.092;2022-10-31T12:31:50;21.20;99.90
12957;DHT22;6543;48.836;10.092;2022-10-31T12:34:49;21.20;99.90
12957;DHT22;6543;48.836;10.092;2022-10-31T12:37:33;21.30;99.90
12957;DHT22;6543;48.836;10.092;2022-10-31T12:40:15;21.30;99.90
12957;DHT22;6543;48.836;10.092;2022-10-31T12:42:58;21.10;99.90
12957;DHT22;6543;48.836;10.092;2022-10-31T12:45:36;21.10;99.90
12957;DHT22;6543;48.836;10.092;2022-10-31T12:48:40;21.00;99.90
12957;DHT22;6543;48.836;10.092;2022-10-31T12:51:15;20.90;99.90
12957;DHT22;6543;48.836;10.092;2022-10-31T12:53:56;20.80;99.90
12957;DHT22;6543;48.836;10.092;2022-10-31T12:56:37;20.90;99.90
12957;DHT22;6543;48.836;10.092;2022-10-31T12:59:12;20.90;99.90
12957;DHT22;6543;48.836;10.092;2022-10-31T13:01:45;20.90;99.90
12957;DHT22;6543;48.836;10.092;2022-10-31T13:04:19;20.90;99.90
12957;DHT22;6543;48.836;10.092;2022-10-31T13:06:50;21.00;99.90
12957;DHT22;6543;48.836;10.092;2022-10-31T13:09:22;20.90;99.90
12957;DHT22;6543;48.836;10.092;2022-10-31T13:11:55;20.90;99.90
12957;DHT22;6543;48.836;10.092;2022-10-31T13:14:26;20.90;99.90
12957;DHT22;6543;48.836;10.092;2022-10-31T13:16:55;20.80;99.90
12957;DHT22;6543;48.836;10.092;2022-10-31T13:19:25;20.70;99.90
12957;DHT22;6543;48.836;10.092;2022-10-31T13:21:57;20.60;99.90
12957;DHT22;6543;48.836;10.092;2022-10-31T13:24:30;20.50;99.90
12957;DHT22;6543;48.836;10.092;2022-10-31T13:27:03;20.40;99.90
12957;DHT22;6543;48.836;10.092;2022-10-31T13:29:39;20.30;99.90
12957;DHT22;6543;48.836;10.092;2022-10-31T13:32:09;20.30;99.90
12957;DHT22;6543;48.836;10.092;2022-10-31T13:34:39;20.40;99.90
12957;DHT22;6543;48.836;10.092;2022-10-31T13:37:15;20.40;99.90
12957;DHT22;6543;48.836;10.092;2022-10-31T13:39:52;20.30;99.90
12957;DHT22;6543;48.836;10.092;2022-10-31T13:45:15;20.20;99.90
12957;DHT22;6543;48.836;10.092;2022-10-31T13:47:42;20.10;99.90
12957;DHT22;6543;48.836;10.092;2022-10-31T13:50:21;20.10;99.90
12957;DHT22;6543;48.836;10.092;2022-10-31T13:52:49;20.00;99.90
12957;DHT22;6543;48.836;10.092;2022-10-31T13:55:37;19.90;99.90
12957;DHT22;6543;48.836;10.092;2022-10-31T13:58:21;20.00;99.90
12957;DHT22;6543;48.836;10.092;2022-10-31T14:01:03;20.00;99.90
12957;DHT22;6543;48.836;10.092;2022-10-31T14:03:33;19.90;99.90
12957;DHT22;6543;48.836;10.092;2022-10-31T14:06:02;19.80;99.90
12957;DHT22;6543;48.836;10.092;2022-10-31T14:08:33;19.60;99.90
12957;DHT22;6543;48.836;10.092;2022-10-31T14:11:00;19.50;99.90
12957;DHT22;6543;48.836;10.092;2022-10-31T14:13:32;19.50;99.90
12957;DHT22;6543;48.836;10.092;2022-10-31T14:16:03;19.40;99.90
12957;DHT22;6543;48.836;10.092;2022-10-31T14:18:33;19.30;99.90
12957;DHT22;6543;48.836;10.092;2022-10-31T14:21:01;19.30;99.90
12957;DHT22;6543;48.836;10.092;2022-10-31T14:23:36;19.30;99.90
12957;DHT22;6543;48.836;10.092;2022-10-31T14:26:21;19.20;99.90
12957;DHT22;6543;48.836;10.092;2022-10-31T14:28:58;20.20;99.90
12957;DHT22;6543;48.836;10.092;2022-10-31T14:31:34;19.10;99.90
12957;DHT22;6543;48.836;10.092;2022-10-31T14:34:17;19.00;99.90
12957;DHT22;6543;48.836;10.092;2022-10-31T14:39:56;19.00;99.90
12957;DHT22;6543;48.836;10.092;2022-10-31T14:42:35;19.10;99.90
12957;DHT22;6543;48.836;10.092;2022-10-31T14:45:17;19.20;99.90
12957;DHT22;6543;48.836;10.092;2022-10-31T14:48:00;19.20;99.90
12957;DHT22;6543;48.836;10.092;2022-10-31T14:50:41;19.30;99.90
12957;DHT22;6543;48.836;10.092;2022-10-31T14:53:14;19.30;99.90
12957;DHT22;6543;48.836;10.092;2022-10-31T14:55:47;19.20;99.90
12957;DHT22;6543;48.836;10.092;2022-10-31T14:58:18;19.40;99.90
12957;DHT22;6543;48.836;10.092;2022-10-31T15:00:53;19.50;99.90
12957;DHT22;6543;48.836;10.092;2022-10-31T15:03:26;19.40;99.90
12957;DHT22;6543;48.836;10.092;2022-10-31T15:05:59;19.30;99.90
12957;DHT22;6543;48.836;10.092;2022-10-31T15:08:33;19.30;99.90
12957;DHT22;6543;48.836;10.092;2022-10-31T15:11:06;19.10;99.90
12957;DHT22;6543;48.836;10.092;2022-10-31T15:13:41;19.10;99.90
12957;DHT22;6543;48.836;10.092;2022-10-31T15:16:11;19.00;99.90
12957;DHT22;6543;48.836;10.092;2022-10-31T15:18:46;18.90;99.90
12957;DHT22;6543;48.836;10.092;2022-10-31T15:21:15;18.70;99.90
12957;DHT22;6543;48.836;10.092;2022-10-31T15:23:43;18.60;99.90
12957;DHT22;6543;48.836;10.092;2022-10-31T15:26:16;18.70;99.90
12957;DHT22;6543;48.836;10.092;2022-10-31T15:28:44;18.50;99.90
12957;DHT22;6543;48.836;10.092;2022-10-31T15:31:16;18.40;99.90
12957;DHT22;6543;48.836;10.092;2022-10-31T15:33:47;18.40;99.90
12957;DHT22;6543;48.836;10.092;2022-10-31T15:36:19;18.30;99.90
12957;DHT22;6543;48.836;10.092;2022-10-31T15:38:48;18.20;99.90
12957;DHT22;6543;48.836;10.092;2022-10-31T15:41:24;18.00;99.90
12957;DHT22;6543;48.836;10.092;2022-10-31T15:43:54;17.90;99.90
12957;DHT22;6543;48.836;10.092;2022-10-31T15:46:23;17.70;99.90
12957;DHT22;6543;48.836;10.092;2022-10-31T15:48:50;17.60;99.90
12957;DHT22;6543;48.836;10.092;2022-10-31T15:51:17;17.50;99.90
12957;DHT22;6543;48.836;10.092;2022-10-31T15:53:52;17.30;99.90
12957;DHT22;6543;48.836;10.092;2022-10-31T15:56:25;17.20;99.90
12957;DHT22;6543;48.836;10.092;2022-10-31T15:58:54;17.00;99.90
12957;DHT22;6543;48.836;10.092;2022-10-31T16:01:25;16.80;99.90
12957;DHT22;6543;48.836;10.092;2022-10-31T16:04:01;16.60;99.90
12957;DHT22;6543;48.836;10.092;2022-10-31T16:06:29;16.50;99.90
12957;DHT22;6543;48.836;10.092;2022-10-31T16:08:56;16.50;99.90
12957;DHT22;6543;48.836;10.092;2022-10-31T16:11:25;16.40;99.90
12957;DHT22;6543;48.836;10.092;2022-10-31T16:14:01;16.30;99.90